< < Back
Terminal Aerodrome Forecast


Current Version              Previous Versions:   1  2  3  4  5  6  7  8  9  

Terminal Aerodrome Forecast

734
FTUS44 KMOB 020522
TAFMOB
TAF
KMOB 020522Z 0206/0306 21003KT P6SM SCT150 SCT250
     FM021000 23003KT P6SM VCSH SCT035 SCT150
     FM021400 23008KT P6SM VCTS SCT035CB SCT150
     FM030000 19006KT P6SM SCT040 SCT100=

Latest METAR

604
SAUS80 KWBC 020500
MTRMOB
METAR KMOB 020456Z AUTO 21004KT 10SM CLR 22/22 A3008 RMK AO2 SLP183
T02220217


USA.gov is the U.S. government's official web portal to all federal, state and local government web resources and services.